createdAt,value
2023-01-13T00:00:51.007Z,9.57
2023-01-13T00:01:50.994Z,9.57
2023-01-13T00:02:50.993Z,9.57
2023-01-13T00:03:50.979Z,9.58
2023-01-13T00:04:51.002Z,9.56
2023-01-13T00:05:50.958Z,9.57
2023-01-13T00:06:50.928Z,9.56
2023-01-13T00:07:50.919Z,9.56
2023-01-13T00:08:50.907Z,9.57
2023-01-13T00:09:50.893Z,9.56
2023-01-13T00:10:50.872Z,9.57
2023-01-13T00:11:50.865Z,9.57
2023-01-13T00:12:50.853Z,9.58
2023-01-13T00:13:50.907Z,9.58
2023-01-13T00:14:50.825Z,9.60
2023-01-13T00:15:50.877Z,9.61
2023-01-13T00:16:50.795Z,9.66
2023-01-13T00:17:50.803Z,9.64
2023-01-13T00:18:50.793Z,9.63
2023-01-13T00:19:50.765Z,9.63
2023-01-13T00:20:50.754Z,9.66
2023-01-13T00:21:50.744Z,9.64
2023-01-13T00:22:50.765Z,9.66
2023-01-13T00:23:50.692Z,9.66
2023-01-13T00:24:50.694Z,9.67
2023-01-13T00:25:50.675Z,9.71
2023-01-13T00:26:50.662Z,9.73
2023-01-13T00:27:50.644Z,9.70
2023-01-13T00:28:50.636Z,9.68
2023-01-13T00:29:50.653Z,9.67
2023-01-13T00:30:50.634Z,9.64
2023-01-13T00:31:50.607Z,9.64
2023-01-13T00:32:50.596Z,9.63
2023-01-13T00:33:50.583Z,9.63
2023-01-13T00:34:50.567Z,9.67
2023-01-13T00:35:50.575Z,9.70
2023-01-13T00:36:50.561Z,9.71
2023-01-13T00:37:50.518Z,9.71
2023-01-13T00:38:50.519Z,9.73
2023-01-13T00:39:50.493Z,9.71
2023-01-13T00:40:50.483Z,9.73
2023-01-13T00:41:50.477Z,9.75
2023-01-13T00:42:50.463Z,9.73
2023-01-13T00:43:50.435Z,9.73
2023-01-13T00:44:50.445Z,9.76
2023-01-13T00:45:50.429Z,9.79
2023-01-13T00:46:50.469Z,9.78
2023-01-13T00:47:50.428Z,9.79
2023-01-13T00:48:50.375Z,9.82
2023-01-13T00:49:50.380Z,9.83
2023-01-13T00:50:50.354Z,9.83
2023-01-13T00:51:50.343Z,9.85
2023-01-13T00:52:50.321Z,9.85
2023-01-13T00:53:50.337Z,9.83
2023-01-13T00:54:50.305Z,9.83
2023-01-13T00:55:50.306Z,9.82
2023-01-13T00:56:50.275Z,9.82
2023-01-13T00:57:50.278Z,9.78
2023-01-13T00:58:50.256Z,9.81
2023-01-13T00:59:50.245Z,9.82
2023-01-13T01:00:50.258Z,9.81
2023-01-13T01:01:50.307Z,9.79
2023-01-13T01:02:50.193Z,9.81
2023-01-13T01:03:50.177Z,9.79
2023-01-13T01:04:50.178Z,9.82
2023-01-13T01:05:50.158Z,9.82
2023-01-13T01:06:50.159Z,9.85
2023-01-13T01:07:50.140Z,9.88
2023-01-13T01:08:50.105Z,9.89
2023-01-13T01:09:50.119Z,9.89
2023-01-13T01:10:50.099Z,9.91
2023-01-13T01:11:50.096Z,9.89
2023-01-13T01:12:50.080Z,9.88
2023-01-13T01:13:50.067Z,9.86
2023-01-13T01:14:50.053Z,9.86
2023-01-13T01:15:50.121Z,9.88
2023-01-13T01:16:50.029Z,9.88
2023-01-13T01:17:50.007Z,9.91
2023-01-13T01:18:49.986Z,9.88
2023-01-13T01:19:49.986Z,9.89
2023-01-13T01:20:49.989Z,9.91
2023-01-13T01:21:49.963Z,9.89
2023-01-13T01:22:49.947Z,9.88
2023-01-13T01:23:49.939Z,9.86
2023-01-13T01:24:49.921Z,9.85
2023-01-13T01:25:49.896Z,9.85
2023-01-13T01:26:49.889Z,9.83
2023-01-13T01:27:49.877Z,9.83
2023-01-13T01:28:49.857Z,9.85
2023-01-13T01:29:49.855Z,9.83
2023-01-13T01:30:49.834Z,9.85
2023-01-13T01:31:49.824Z,9.83
2023-01-13T01:32:49.806Z,9.82
2023-01-13T01:33:49.785Z,9.86
2023-01-13T01:34:49.787Z,9.89
2023-01-13T01:35:49.808Z,9.93
2023-01-13T01:36:49.757Z,9.96
2023-01-13T01:37:49.736Z,9.96
2023-01-13T01:38:49.730Z,9.97
2023-01-13T01:39:49.727Z,10.00
2023-01-13T01:40:49.702Z,10.00
2023-01-13T01:41:49.712Z,9.99
2023-01-13T01:42:49.679Z,9.97
2023-01-13T01:43:49.666Z,9.97
2023-01-13T01:44:50.705Z,9.99
2023-01-13T01:45:49.643Z,9.99
2023-01-13T01:46:49.659Z,10.00
2023-01-13T01:47:49.632Z,9.97
2023-01-13T01:48:49.598Z,9.99
2023-01-13T01:49:49.587Z,10.01
2023-01-13T01:50:49.569Z,10.00
2023-01-13T01:51:49.563Z,10.00
2023-01-13T01:52:49.536Z,10.01
2023-01-13T01:53:49.554Z,10.01
2023-01-13T01:54:49.534Z,10.00
2023-01-13T01:55:49.508Z,10.01
2023-01-13T01:56:49.502Z,10.01
2023-01-13T01:57:49.485Z,10.00
2023-01-13T01:58:49.478Z,10.04
2023-01-13T01:59:49.444Z,10.04
2023-01-13T02:00:49.455Z,10.04
2023-01-13T02:01:49.521Z,10.03
2023-01-13T02:02:49.435Z,10.04
2023-01-13T02:03:49.407Z,10.04
2023-01-13T02:04:49.377Z,10.04
2023-01-13T02:05:49.380Z,10.06
2023-01-13T02:06:49.370Z,10.07
2023-01-13T02:07:49.355Z,10.07
2023-01-13T02:08:49.359Z,10.07
2023-01-13T02:09:49.336Z,10.07
2023-01-13T02:10:49.321Z,10.06
2023-01-13T02:11:49.307Z,10.07
2023-01-13T02:12:49.298Z,10.10
2023-01-13T02:13:49.265Z,10.10
2023-01-13T02:14:49.249Z,10.10
2023-01-13T02:15:49.248Z,10.10
2023-01-13T02:16:49.229Z,10.14
2023-01-13T02:17:49.223Z,10.17
2023-01-13T02:18:49.217Z,10.21
2023-01-13T02:19:49.193Z,10.21
2023-01-13T02:20:49.174Z,10.21
2023-01-13T02:21:49.201Z,10.19
2023-01-13T02:22:49.160Z,10.22
2023-01-13T02:23:49.148Z,10.19
2023-01-13T02:24:49.143Z,10.21
2023-01-13T02:25:49.129Z,10.19
2023-01-13T02:26:49.099Z,10.21
2023-01-13T02:27:49.109Z,10.24
2023-01-13T02:28:49.080Z,10.22
2023-01-13T02:29:49.059Z,10.24
2023-01-13T02:30:49.059Z,10.22
2023-01-13T02:31:49.095Z,10.22
2023-01-13T02:32:49.027Z,10.22
2023-01-13T02:33:49.030Z,10.24
2023-01-13T02:34:48.999Z,10.22
2023-01-13T02:35:48.986Z,10.22
2023-01-13T02:36:48.970Z,10.25
2023-01-13T02:37:48.973Z,10.22
2023-01-13T02:38:48.950Z,10.25
2023-01-13T02:39:48.933Z,10.24
2023-01-13T02:40:48.933Z,10.28
2023-01-13T02:41:48.919Z,10.26
2023-01-13T02:42:48.911Z,10.26
2023-01-13T02:43:48.890Z,10.26
2023-01-13T02:44:48.875Z,10.25
2023-01-13T02:45:48.904Z,10.24
2023-01-13T02:46:48.843Z,10.24
2023-01-13T02:47:48.830Z,10.25
2023-01-13T02:48:48.838Z,10.24
2023-01-13T02:49:48.810Z,10.24
2023-01-13T02:50:48.806Z,10.24
2023-01-13T02:51:48.769Z,10.24
2023-01-13T02:52:48.791Z,10.22
2023-01-13T02:53:48.752Z,10.22
2023-01-13T02:54:48.751Z,10.22
2023-01-13T02:55:48.723Z,10.22
2023-01-13T02:56:48.712Z,10.21
2023-01-13T02:57:48.698Z,10.22
2023-01-13T02:58:48.730Z,10.19
2023-01-13T02:59:48.679Z,10.19
2023-01-13T03:00:48.672Z,10.21
2023-01-13T03:01:48.737Z,10.22
2023-01-13T03:02:48.643Z,10.21
2023-01-13T03:03:48.595Z,10.19
2023-01-13T03:04:48.637Z,10.19
2023-01-13T03:05:48.575Z,10.19
2023-01-13T03:06:48.557Z,10.19
2023-01-13T03:07:48.575Z,10.21
2023-01-13T03:08:48.519Z,10.21
2023-01-13T03:09:48.513Z,10.19
2023-01-13T03:10:48.485Z,10.17
2023-01-13T03:11:48.488Z,10.17
2023-01-13T03:12:48.469Z,10.15
2023-01-13T03:13:48.472Z,10.14
2023-01-13T03:14:48.435Z,10.12
2023-01-13T03:15:48.423Z,10.12
2023-01-13T03:16:48.450Z,10.14
2023-01-13T03:17:48.417Z,10.12
2023-01-13T03:18:48.395Z,10.12
2023-01-13T03:19:48.405Z,10.12
2023-01-13T03:20:48.398Z,10.12
2023-01-13T03:21:48.377Z,10.10
2023-01-13T03:22:48.336Z,10.12
2023-01-13T03:23:48.335Z,10.09
2023-01-13T03:24:48.326Z,10.07
2023-01-13T03:25:48.304Z,10.07
2023-01-13T03:26:48.280Z,10.06
2023-01-13T03:27:48.272Z,10.07
2023-01-13T03:28:48.247Z,10.06
2023-01-13T03:29:48.264Z,10.03
2023-01-13T03:30:48.347Z,10.04
2023-01-13T03:31:48.225Z,10.04
2023-01-13T03:32:48.194Z,10.06
2023-01-13T03:33:48.210Z,10.07
2023-01-13T03:34:48.209Z,10.07
2023-01-13T03:35:48.189Z,10.07
2023-01-13T03:36:48.157Z,10.07
2023-01-13T03:37:48.186Z,10.07
2023-01-13T03:38:48.130Z,10.10
2023-01-13T03:39:48.118Z,10.14
2023-01-13T03:40:48.162Z,10.14
2023-01-13T03:41:48.096Z,10.17
2023-01-13T03:42:48.144Z,10.17
2023-01-13T03:43:48.084Z,10.17
2023-01-13T03:44:48.049Z,10.19
2023-01-13T03:45:48.062Z,10.18
2023-01-13T03:46:48.028Z,10.18
2023-01-13T03:47:48.015Z,10.18
2023-01-13T03:48:48.032Z,10.17
2023-01-13T03:49:48.000Z,10.17
2023-01-13T03:50:47.974Z,10.18
2023-01-13T03:51:47.981Z,10.18
2023-01-13T03:52:47.946Z,10.15
2023-01-13T03:53:47.937Z,10.15
2023-01-13T03:54:47.918Z,10.14
2023-01-13T03:55:47.923Z,10.14
2023-01-13T03:56:47.902Z,10.14
2023-01-13T03:57:47.924Z,10.12
2023-01-13T03:58:47.882Z,10.10
2023-01-13T03:59:47.854Z,10.10
2023-01-13T04:00:47.837Z,10.07
2023-01-13T04:01:47.942Z,10.07
2023-01-13T04:02:47.812Z,10.06
2023-01-13T04:03:47.846Z,10.04
2023-01-13T04:04:47.798Z,10.06
2023-01-13T04:05:47.805Z,10.06
2023-01-13T04:06:47.759Z,10.04
2023-01-13T04:07:47.751Z,10.04
2023-01-13T04:08:47.724Z,10.06
2023-01-13T04:09:47.738Z,10.06
2023-01-13T04:10:47.718Z,10.09
2023-01-13T04:11:47.696Z,10.10
2023-01-13T04:12:47.716Z,10.15
2023-01-13T04:13:47.679Z,10.14
2023-01-13T04:14:47.668Z,10.12
2023-01-13T04:15:47.662Z,10.14
2023-01-13T04:16:47.649Z,10.14
2023-01-13T04:17:47.631Z,10.15
2023-01-13T04:18:47.607Z,10.15
2023-01-13T04:19:47.616Z,10.14
2023-01-13T04:20:47.598Z,10.12
2023-01-13T04:21:47.568Z,10.14
2023-01-13T04:22:47.574Z,10.10
2023-01-13T04:23:47.548Z,10.12
2023-01-13T04:24:47.528Z,10.12
2023-01-13T04:25:47.514Z,10.14
2023-01-13T04:26:47.512Z,10.14
2023-01-13T04:27:47.497Z,10.14
2023-01-13T04:28:47.486Z,10.17
2023-01-13T04:29:47.483Z,10.18
2023-01-13T04:30:47.479Z,10.19
2023-01-13T04:31:47.458Z,10.18
2023-01-13T04:32:47.421Z,10.15
2023-01-13T04:33:47.415Z,10.15
2023-01-13T04:34:47.401Z,10.12
2023-01-13T04:35:47.419Z,10.14
2023-01-13T04:36:54.408Z,10.12
2023-01-13T04:37:47.378Z,10.14
2023-01-13T04:38:47.354Z,10.12
2023-01-13T04:39:47.351Z,10.12
2023-01-13T04:40:48.166Z,10.12
2023-01-13T04:41:47.328Z,10.14
2023-01-13T04:42:47.331Z,10.10
2023-01-13T04:43:47.307Z,10.12
2023-01-13T04:44:47.301Z,10.09
2023-01-13T04:45:47.268Z,10.09
2023-01-13T04:46:47.257Z,10.07
2023-01-13T04:47:47.299Z,10.04
2023-01-13T04:48:47.257Z,10.04
2023-01-13T04:49:47.246Z,10.04
2023-01-13T04:50:47.195Z,10.04
2023-01-13T04:51:47.188Z,10.03
2023-01-13T04:52:47.193Z,10.01
2023-01-13T04:53:47.188Z,9.99
2023-01-13T04:54:47.161Z,9.96
2023-01-13T04:55:47.187Z,9.97
2023-01-13T04:56:47.134Z,9.97
2023-01-13T04:57:47.116Z,9.96
2023-01-13T04:58:47.095Z,9.93
2023-01-13T04:59:47.115Z,9.89
2023-01-13T05:00:47.093Z,9.88
2023-01-13T05:01:47.152Z,9.88
2023-01-13T05:02:47.049Z,9.88
2023-01-13T05:03:47.042Z,9.89
2023-01-13T05:04:47.074Z,9.91
2023-01-13T05:05:47.017Z,9.89
2023-01-13T05:06:47.050Z,9.89
2023-01-13T05:07:47.016Z,9.86
2023-01-13T05:08:46.959Z,9.85
2023-01-13T05:09:46.960Z,9.85
2023-01-13T05:10:46.942Z,9.86
2023-01-13T05:11:46.955Z,9.88
2023-01-13T05:12:46.907Z,9.86
2023-01-13T05:13:46.908Z,9.85
2023-01-13T05:14:46.893Z,9.89
2023-01-13T05:15:46.910Z,9.91
2023-01-13T05:16:46.858Z,9.94
2023-01-13T05:17:46.871Z,9.94
2023-01-13T05:18:46.853Z,9.94
2023-01-13T05:19:46.860Z,9.93
2023-01-13T05:20:46.822Z,9.94
2023-01-13T05:21:46.808Z,9.94
2023-01-13T05:22:46.783Z,10.00
2023-01-13T05:23:46.831Z,10.01
2023-01-13T05:24:46.778Z,10.03
2023-01-13T05:25:46.763Z,10.09
2023-01-13T05:26:46.731Z,10.09
2023-01-13T05:27:46.727Z,10.10
2023-01-13T05:28:46.739Z,10.12
2023-01-13T05:29:46.849Z,10.14
2023-01-13T05:30:46.757Z,10.12
2023-01-13T05:31:46.675Z,10.09
2023-01-13T05:32:46.653Z,10.07
2023-01-13T05:33:46.648Z,10.06
2023-01-13T05:34:46.626Z,10.07
2023-01-13T05:35:46.627Z,10.06
2023-01-13T05:36:46.635Z,10.03
2023-01-13T05:37:46.615Z,10.00
2023-01-13T05:38:46.594Z,9.99
2023-01-13T05:39:46.571Z,9.96
2023-01-13T05:40:46.580Z,9.96
2023-01-13T05:41:46.551Z,9.91
2023-01-13T05:42:46.611Z,9.91
2023-01-13T05:43:46.546Z,9.89
2023-01-13T05:44:46.499Z,9.88
2023-01-13T05:45:46.514Z,9.88
2023-01-13T05:46:46.566Z,9.86
2023-01-13T05:47:46.478Z,9.88
2023-01-13T05:48:46.449Z,9.89
2023-01-13T05:49:46.437Z,9.91
2023-01-13T05:50:46.411Z,9.93
2023-01-13T05:51:46.414Z,9.96
2023-01-13T05:52:46.418Z,9.99
2023-01-13T05:53:46.381Z,10.00
2023-01-13T05:54:46.380Z,10.01
2023-01-13T05:55:46.370Z,10.00
2023-01-13T05:56:46.345Z,10.03
2023-01-13T05:57:46.402Z,10.01
2023-01-13T05:58:46.331Z,10.03
2023-01-13T05:59:46.356Z,10.01
2023-01-13T06:00:46.289Z,10.03
2023-01-13T06:01:46.316Z,10.03
2023-01-13T06:02:46.282Z,10.03
2023-01-13T06:03:46.249Z,10.04
2023-01-13T06:04:46.355Z,10.07
2023-01-13T06:05:46.232Z,10.07
2023-01-13T06:06:46.261Z,10.06
2023-01-13T06:07:46.229Z,10.07
2023-01-13T06:08:46.193Z,10.10
2023-01-13T06:09:46.184Z,10.09
2023-01-13T06:10:46.191Z,10.09
2023-01-13T06:11:46.147Z,10.10
2023-01-13T06:12:46.134Z,10.12
2023-01-13T06:13:46.127Z,10.12
2023-01-13T06:14:46.100Z,10.14
2023-01-13T06:15:46.128Z,10.12
2023-01-13T06:16:46.095Z,10.14
2023-01-13T06:17:46.072Z,10.14
2023-01-13T06:18:46.065Z,10.14
2023-01-13T06:19:46.449Z,10.12
2023-01-13T06:20:46.032Z,10.12
2023-01-13T06:21:46.065Z,10.10
2023-01-13T06:22:46.183Z,10.10
2023-01-13T06:23:45.997Z,10.10
2023-01-13T06:24:46.017Z,10.07
2023-01-13T06:25:46.003Z,10.09
2023-01-13T06:26:45.953Z,10.07
2023-01-13T06:27:45.965Z,10.06
2023-01-13T06:28:45.938Z,10.07
2023-01-13T06:29:45.915Z,10.06
2023-01-13T06:30:45.888Z,10.06
2023-01-13T06:31:45.976Z,10.04
2023-01-13T06:32:45.869Z,10.03
2023-01-13T06:33:45.892Z,10.03
2023-01-13T06:34:45.852Z,10.00
2023-01-13T06:35:45.833Z,9.99
2023-01-13T06:36:45.825Z,9.97
2023-01-13T06:37:45.805Z,9.96
2023-01-13T06:38:45.794Z,9.94
2023-01-13T06:39:45.815Z,9.94
2023-01-13T06:40:45.778Z,9.93
2023-01-13T06:41:45.764Z,9.93
2023-01-13T06:42:45.740Z,9.91
2023-01-13T06:43:45.721Z,9.93
2023-01-13T06:44:45.740Z,9.91
2023-01-13T06:45:45.707Z,9.89
2023-01-13T06:46:45.726Z,9.91
2023-01-13T06:47:45.782Z,9.91
2023-01-13T06:48:45.652Z,9.91
2023-01-13T06:49:45.662Z,9.93
2023-01-13T06:50:45.628Z,9.93
2023-01-13T06:51:45.654Z,9.93
2023-01-13T06:52:45.612Z,9.94
2023-01-13T06:53:45.632Z,9.94
2023-01-13T06:54:45.573Z,9.96
2023-01-13T06:55:45.640Z,9.97
2023-01-13T06:56:45.575Z,9.99
2023-01-13T06:57:45.554Z,10.01
2023-01-13T06:58:45.524Z,10.03
2023-01-13T06:59:45.540Z,10.06
2023-01-13T07:00:45.497Z,10.07
2023-01-13T07:01:45.666Z,10.09
2023-01-13T07:02:45.528Z,10.12
2023-01-13T07:03:45.461Z,10.12
2023-01-13T07:04:45.441Z,10.15
2023-01-13T07:05:45.433Z,10.15
2023-01-13T07:06:45.435Z,10.17
2023-01-13T07:07:45.443Z,10.15
2023-01-13T07:08:45.394Z,10.15
2023-01-13T07:09:45.385Z,10.15
2023-01-13T07:10:45.367Z,10.17
2023-01-13T07:11:45.371Z,10.15
2023-01-13T07:12:45.357Z,10.19
2023-01-13T07:13:45.348Z,10.19
2023-01-13T07:14:45.381Z,10.22
2023-01-13T07:15:45.292Z,10.24
2023-01-13T07:16:45.330Z,10.21
2023-01-13T07:17:45.294Z,10.22
2023-01-13T07:18:45.273Z,10.21
2023-01-13T07:19:45.253Z,10.21
2023-01-13T07:20:45.383Z,10.21
2023-01-13T07:21:45.223Z,10.21
2023-01-13T07:22:45.213Z,10.22
2023-01-13T07:23:45.194Z,10.22
2023-01-13T07:24:45.195Z,10.22
2023-01-13T07:25:45.185Z,10.24
2023-01-13T07:26:45.188Z,10.21
2023-01-13T07:27:45.145Z,10.19
2023-01-13T07:28:45.152Z,10.19
2023-01-13T07:29:45.118Z,10.21
2023-01-13T07:30:45.123Z,10.19
2023-01-13T07:31:45.121Z,10.19
2023-01-13T07:32:45.112Z,10.19
2023-01-13T07:33:45.062Z,10.21
2023-01-13T07:34:45.066Z,10.21
2023-01-13T07:35:45.033Z,10.21
2023-01-13T07:36:45.034Z,10.19
2023-01-13T07:37:45.013Z,10.21
2023-01-13T07:38:45.049Z,10.19
2023-01-13T07:39:44.997Z,10.19
2023-01-13T07:40:44.983Z,10.18
2023-01-13T07:41:44.952Z,10.17
2023-01-13T07:42:44.955Z,10.18
2023-01-13T07:43:44.934Z,10.21
2023-01-13T07:44:44.954Z,10.21
2023-01-13T07:45:44.942Z,10.21
2023-01-13T07:46:44.916Z,10.19
2023-01-13T07:47:44.875Z,10.21
2023-01-13T07:48:44.899Z,10.24
2023-01-13T07:49:44.863Z,10.24
2023-01-13T07:50:44.838Z,10.26
2023-01-13T07:51:44.817Z,10.28
2023-01-13T07:52:44.826Z,10.30
2023-01-13T07:53:44.793Z,10.30
2023-01-13T07:54:44.786Z,10.28
2023-01-13T07:55:44.817Z,10.28
2023-01-13T07:56:44.782Z,10.26
2023-01-13T07:57:44.769Z,10.28
2023-01-13T07:58:44.754Z,10.25
2023-01-13T07:59:44.739Z,10.25
2023-01-13T08:00:44.745Z,10.26
2023-01-13T08:01:44.801Z,10.26
2023-01-13T08:02:44.745Z,10.25
2023-01-13T08:03:44.665Z,10.22
2023-01-13T08:04:44.660Z,10.22
2023-01-13T08:05:44.661Z,10.21
2023-01-13T08:06:44.637Z,10.21
2023-01-13T08:07:44.630Z,10.22
2023-01-13T08:08:44.616Z,10.21
2023-01-13T08:09:44.583Z,10.22
2023-01-13T08:10:44.584Z,10.19
2023-01-13T08:11:44.567Z,10.22
2023-01-13T08:12:52.350Z,10.19
2023-01-13T08:13:45.554Z,10.21
2023-01-13T08:14:44.583Z,10.18
2023-01-13T08:15:44.508Z,10.18
2023-01-13T08:16:44.605Z,10.19
2023-01-13T08:17:44.498Z,10.18
2023-01-13T08:18:44.489Z,10.19
2023-01-13T08:19:44.479Z,10.18
2023-01-13T08:20:44.466Z,10.18
2023-01-13T08:21:44.439Z,10.18
2023-01-13T08:22:44.443Z,10.15
2023-01-13T08:23:44.433Z,10.17
2023-01-13T08:24:44.416Z,10.15
2023-01-13T08:25:44.389Z,10.14
2023-01-13T08:26:44.378Z,10.15
2023-01-13T08:27:44.350Z,10.15
2023-01-13T08:28:44.353Z,10.17
2023-01-13T08:29:44.347Z,10.15
2023-01-13T08:30:44.427Z,10.15
2023-01-13T08:31:44.301Z,10.14
2023-01-13T08:32:44.336Z,10.12
2023-01-13T08:33:44.268Z,10.09
2023-01-13T08:34:44.343Z,10.12
2023-01-13T08:35:44.271Z,10.12
2023-01-13T08:36:44.335Z,10.10
2023-01-13T08:37:44.220Z,10.09
2023-01-13T08:38:44.206Z,10.06
2023-01-13T08:39:44.195Z,10.06
2023-01-13T08:40:44.191Z,10.04
2023-01-13T08:41:44.201Z,10.06
2023-01-13T08:42:44.187Z,10.03
2023-01-13T08:43:44.145Z,10.04
2023-01-13T08:44:44.146Z,10.06
2023-01-13T08:45:44.175Z,10.04
2023-01-13T08:46:44.109Z,10.07
2023-01-13T08:47:44.097Z,10.07
2023-01-13T08:48:44.093Z,10.07
2023-01-13T08:49:44.060Z,10.10
2023-01-13T08:50:44.052Z,10.09
2023-01-13T08:51:44.059Z,10.07
2023-01-13T08:52:44.049Z,10.09
2023-01-13T08:53:44.040Z,10.06
2023-01-13T08:54:44.036Z,10.00
2023-01-13T08:55:43.991Z,9.99
2023-01-13T08:56:44.037Z,10.00
2023-01-13T08:57:43.971Z,10.01
2023-01-13T08:58:44.004Z,10.06
2023-01-13T08:59:43.960Z,10.06
2023-01-13T09:00:43.918Z,10.06
2023-01-13T09:01:43.978Z,10.10
2023-01-13T09:02:43.924Z,10.07
2023-01-13T09:03:43.880Z,10.06
2023-01-13T09:04:43.952Z,10.06
2023-01-13T09:05:43.857Z,10.06
2023-01-13T09:06:43.850Z,10.03
2023-01-13T09:07:43.861Z,10.04
2023-01-13T09:08:43.841Z,10.03
2023-01-13T09:09:43.806Z,10.03
2023-01-13T09:10:43.820Z,10.04
2023-01-13T09:11:43.789Z,10.06
2023-01-13T09:12:43.794Z,10.06
2023-01-13T09:13:43.771Z,10.06
2023-01-13T09:14:43.759Z,10.06
2023-01-13T09:15:43.889Z,10.06
2023-01-13T09:16:43.740Z,10.06
2023-01-13T09:17:43.686Z,10.01
2023-01-13T09:18:43.686Z,10.01
2023-01-13T09:19:43.701Z,10.00
2023-01-13T09:20:43.739Z,9.99
2023-01-13T09:21:43.693Z,9.99
2023-01-13T09:22:43.660Z,9.99
2023-01-13T09:23:43.617Z,9.99
2023-01-13T09:24:43.615Z,10.00
2023-01-13T09:25:43.602Z,10.01
2023-01-13T09:26:43.596Z,10.00
2023-01-13T09:27:43.577Z,10.00
2023-01-13T09:28:43.549Z,9.99
2023-01-13T09:29:43.647Z,9.96
2023-01-13T09:30:43.615Z,9.94
2023-01-13T09:31:44.379Z,9.94
2023-01-13T09:32:43.532Z,9.93
2023-01-13T09:33:43.493Z,9.93
2023-01-13T09:34:43.553Z,9.93
2023-01-13T09:35:43.477Z,9.94
2023-01-13T09:36:43.504Z,9.94
2023-01-13T09:37:43.455Z,9.94
2023-01-13T09:38:43.441Z,9.93
2023-01-13T09:39:43.408Z,9.91
2023-01-13T09:40:43.407Z,9.89
2023-01-13T09:41:43.395Z,9.88
2023-01-13T09:42:43.427Z,9.88
2023-01-13T09:43:43.384Z,9.91
2023-01-13T09:44:43.354Z,9.91
2023-01-13T09:45:43.335Z,9.91
2023-01-13T09:46:43.450Z,9.89
2023-01-13T09:47:43.353Z,9.88
2023-01-13T09:48:43.311Z,9.85
2023-01-13T09:49:43.303Z,9.83
2023-01-13T09:50:43.306Z,9.83
2023-01-13T09:51:43.376Z,9.83
2023-01-13T09:52:43.249Z,9.81
2023-01-13T09:53:43.222Z,9.79
2023-01-13T09:54:43.275Z,9.79
2023-01-13T09:55:43.211Z,9.81
2023-01-13T09:56:43.251Z,9.81
2023-01-13T09:57:43.172Z,9.82
2023-01-13T09:58:43.161Z,9.82
2023-01-13T09:59:43.216Z,9.78
2023-01-13T10:00:43.178Z,9.75
2023-01-13T10:01:43.155Z,9.73
2023-01-13T10:02:43.129Z,9.70
2023-01-13T10:03:43.105Z,9.68
2023-01-13T10:04:43.149Z,9.64
2023-01-13T10:05:43.072Z,9.63
2023-01-13T10:06:43.096Z,9.60
2023-01-13T10:07:43.063Z,9.60
2023-01-13T10:08:43.034Z,9.58
2023-01-13T10:09:43.023Z,9.58
2023-01-13T10:10:43.035Z,9.56
2023-01-13T10:11:43.000Z,9.56
2023-01-13T10:12:43.004Z,9.53
2023-01-13T10:13:42.982Z,9.50
2023-01-13T10:14:42.960Z,9.50
2023-01-13T10:15:42.961Z,9.49
2023-01-13T10:16:42.936Z,9.48
2023-01-13T10:17:42.940Z,9.46
2023-01-13T10:18:42.909Z,9.45
2023-01-13T10:19:42.902Z,9.45
2023-01-13T10:20:42.889Z,9.43
2023-01-13T10:21:42.936Z,9.42
2023-01-13T10:22:42.855Z,9.39
2023-01-13T10:23:42.826Z,9.38
2023-01-13T10:24:42.831Z,9.35
2023-01-13T10:25:42.868Z,9.34
2023-01-13T10:26:42.797Z,9.34
2023-01-13T10:27:42.784Z,9.34
2023-01-13T10:28:42.803Z,9.34
2023-01-13T10:29:42.873Z,9.35
2023-01-13T10:30:42.776Z,9.39
2023-01-13T10:31:42.744Z,9.40
2023-01-13T10:32:42.747Z,9.43
2023-01-13T10:33:42.712Z,9.48
2023-01-13T10:34:42.704Z,9.45
2023-01-13T10:35:42.682Z,9.43
2023-01-13T10:36:42.662Z,9.45
2023-01-13T10:37:49.683Z,9.45
2023-01-13T10:38:42.667Z,9.46
2023-01-13T10:39:42.619Z,9.45
2023-01-13T10:40:49.011Z,9.45
2023-01-13T10:41:42.609Z,9.49
2023-01-13T10:42:42.603Z,9.50
2023-01-13T10:43:42.654Z,9.52
2023-01-13T10:44:42.562Z,9.53
2023-01-13T10:45:42.552Z,9.52
2023-01-13T10:46:42.610Z,9.52
2023-01-13T10:47:42.606Z,9.52
2023-01-13T10:48:42.514Z,9.50
2023-01-13T10:49:43.161Z,9.50
2023-01-13T10:50:42.481Z,9.53
2023-01-13T10:51:42.533Z,9.57
2023-01-13T10:52:42.451Z,9.57
2023-01-13T10:53:42.432Z,9.60
2023-01-13T10:54:42.429Z,9.60
2023-01-13T10:55:42.418Z,9.61
2023-01-13T10:56:42.497Z,9.61
2023-01-13T10:57:42.423Z,9.64
2023-01-13T10:58:42.398Z,9.68
2023-01-13T10:59:42.377Z,9.71
2023-01-13T11:00:42.414Z,9.73
2023-01-13T11:01:42.529Z,9.79
2023-01-13T11:02:42.421Z,9.81
2023-01-13T11:03:42.313Z,9.73
2023-01-13T11:04:42.326Z,9.73
2023-01-13T11:05:42.275Z,9.71
2023-01-13T11:06:42.273Z,9.70
2023-01-13T11:07:42.276Z,9.70
2023-01-13T11:08:42.278Z,9.70
2023-01-13T11:09:42.233Z,9.67
2023-01-13T11:10:42.223Z,9.68
2023-01-13T11:11:42.221Z,9.70
2023-01-13T11:12:42.205Z,9.79
2023-01-13T11:13:42.193Z,9.88
2023-01-13T11:14:42.184Z,9.97
2023-01-13T11:15:42.341Z,10.09
2023-01-13T11:16:52.763Z,10.10
2023-01-13T11:17:43.142Z,10.12
2023-01-13T11:18:42.124Z,10.09
2023-01-13T11:19:42.116Z,10.06
2023-01-13T11:20:42.095Z,10.07
2023-01-13T11:21:42.082Z,9.99
2023-01-13T11:22:42.065Z,9.97
2023-01-13T11:23:42.034Z,9.99
2023-01-13T11:24:42.047Z,9.97
2023-01-13T11:25:42.032Z,10.03
2023-01-13T11:26:42.007Z,9.97
2023-01-13T11:27:42.025Z,10.00
2023-01-13T11:28:41.974Z,9.97
2023-01-13T11:29:41.971Z,9.97
2023-01-13T11:30:41.943Z,10.00
2023-01-13T11:31:42.039Z,9.97
2023-01-13T11:32:41.923Z,9.97
2023-01-13T11:33:41.937Z,10.00
2023-01-13T11:34:41.913Z,10.00
2023-01-13T11:35:41.906Z,10.03
2023-01-13T11:36:41.917Z,10.00
2023-01-13T11:37:41.875Z,10.09
2023-01-13T11:38:41.854Z,10.15
2023-01-13T11:39:41.897Z,10.18
2023-01-13T11:40:41.840Z,10.14
2023-01-13T11:41:41.831Z,10.17
2023-01-13T11:42:41.817Z,10.19
2023-01-13T11:43:41.805Z,10.22
2023-01-13T11:44:41.783Z,10.24
2023-01-13T11:45:41.774Z,10.24
2023-01-13T11:46:41.798Z,10.24
2023-01-13T11:47:41.788Z,10.30
2023-01-13T11:48:41.735Z,10.28
2023-01-13T11:49:41.714Z,10.26
2023-01-13T11:50:41.689Z,10.26
2023-01-13T11:51:41.682Z,10.30
2023-01-13T11:52:41.705Z,10.28
2023-01-13T11:53:41.659Z,10.34
2023-01-13T11:54:41.657Z,10.37
2023-01-13T11:55:41.636Z,10.39
2023-01-13T11:56:41.627Z,10.37
2023-01-13T11:57:41.630Z,10.34
2023-01-13T11:58:50.201Z,10.34
2023-01-13T11:59:42.584Z,10.36
2023-01-13T12:00:41.556Z,10.37
2023-01-13T12:01:41.578Z,10.34
2023-01-13T12:02:41.535Z,10.42
2023-01-13T12:03:41.545Z,10.51
2023-01-13T12:04:41.509Z,10.47
2023-01-13T12:05:41.505Z,10.46
2023-01-13T12:06:41.478Z,10.52
2023-01-13T12:07:41.479Z,10.53
2023-01-13T12:08:41.458Z,10.52
2023-01-13T12:09:41.476Z,10.53
2023-01-13T12:10:41.435Z,10.52
2023-01-13T12:11:41.428Z,10.44
2023-01-13T12:12:41.456Z,10.53
2023-01-13T12:13:41.421Z,10.42
2023-01-13T12:14:41.376Z,10.43
2023-01-13T12:15:41.397Z,10.52
2023-01-13T12:16:41.428Z,10.51
2023-01-13T12:17:41.350Z,10.63
2023-01-13T12:18:41.326Z,10.73
2023-01-13T12:19:41.378Z,10.74
2023-01-13T12:20:41.295Z,10.76
2023-01-13T12:21:41.285Z,10.76
2023-01-13T12:22:41.305Z,10.65
2023-01-13T12:23:41.347Z,10.59
2023-01-13T12:24:41.526Z,10.55
2023-01-13T12:25:41.250Z,10.55
2023-01-13T12:26:41.333Z,10.58
2023-01-13T12:27:41.404Z,10.63
2023-01-13T12:28:41.377Z,10.59
2023-01-13T12:29:41.307Z,10.66
2023-01-13T12:30:41.222Z,10.68
2023-01-13T12:31:41.183Z,10.70
2023-01-13T12:32:41.149Z,10.70
2023-01-13T12:33:41.150Z,10.76
2023-01-13T12:34:41.124Z,10.76
2023-01-13T12:35:41.116Z,10.66
2023-01-13T12:36:41.402Z,10.62
2023-01-13T12:37:41.128Z,10.63
2023-01-13T12:38:41.079Z,10.62
2023-01-13T12:39:41.058Z,10.70
2023-01-13T12:40:41.047Z,10.68
2023-01-13T12:41:41.054Z,10.71
2023-01-13T12:42:41.005Z,10.73
2023-01-13T12:43:41.009Z,10.76
2023-01-13T12:44:40.986Z,10.80
2023-01-13T12:45:41.027Z,10.78
2023-01-13T12:46:40.947Z,10.73
2023-01-13T12:47:40.966Z,10.68
2023-01-13T12:48:40.928Z,10.70
2023-01-13T12:49:40.943Z,10.76
2023-01-13T12:50:40.958Z,10.70
2023-01-13T12:51:40.899Z,10.63
2023-01-13T12:52:40.880Z,10.76
2023-01-13T12:53:40.889Z,10.70
2023-01-13T12:54:40.909Z,10.68
2023-01-13T12:55:40.866Z,10.73
2023-01-13T12:56:40.827Z,10.81
2023-01-13T12:57:40.868Z,10.88
2023-01-13T12:58:40.830Z,10.94
2023-01-13T12:59:40.846Z,10.91
2023-01-13T13:00:40.807Z,10.86
2023-01-13T13:01:40.990Z,10.88
2023-01-13T13:02:40.788Z,10.91